createdAt,value
2022-08-26T00:01:37.469Z,6.63
2022-08-26T00:04:04.865Z,6.50
2022-08-26T00:06:32.796Z,6.17
2022-08-26T00:09:01.582Z,6.50
2022-08-26T00:11:28.732Z,5.80
2022-08-26T00:13:55.915Z,6.13
2022-08-26T00:16:23.795Z,6.47
2022-08-26T00:18:51.365Z,6.63
2022-08-26T00:21:18.506Z,7.07
2022-08-26T00:23:45.660Z,6.80
2022-08-26T00:26:14.525Z,6.63
2022-08-26T00:28:42.180Z,6.97
2022-08-26T00:31:10.786Z,8.53
2022-08-26T00:33:38.310Z,8.70
2022-08-26T00:36:05.777Z,7.80
2022-08-26T00:38:32.999Z,9.87
2022-08-26T00:41:00.128Z,9.97
2022-08-26T00:43:30.875Z,11.80
2022-08-26T00:46:15.005Z,12.73
2022-08-26T00:48:43.417Z,16.13
2022-08-26T00:51:12.721Z,17.07
2022-08-26T00:53:44.193Z,19.17
2022-08-26T00:56:16.040Z,25.20
2022-08-26T00:58:45.276Z,25.37
2022-08-26T01:01:12.500Z,33.00
2022-08-26T01:03:40.306Z,31.70
2022-08-26T01:06:12.547Z,36.07
2022-08-26T01:08:40.455Z,34.97
2022-08-26T01:11:08.357Z,36.17
2022-08-26T01:13:36.949Z,38.53
2022-08-26T01:16:06.887Z,37.00
2022-08-26T01:18:34.415Z,39.87
2022-08-26T01:21:06.013Z,42.03
2022-08-26T01:23:37.673Z,41.50
2022-08-26T01:26:06.972Z,42.03
2022-08-26T01:28:45.462Z,48.50
2022-08-26T01:31:18.998Z,44.13
2022-08-26T01:33:49.713Z,46.67
2022-08-26T01:36:16.912Z,49.50
2022-08-26T01:38:45.509Z,49.53
2022-08-26T01:41:19.742Z,43.63
2022-08-26T01:43:48.501Z,46.17
2022-08-26T01:46:16.575Z,45.63
2022-08-26T01:48:45.449Z,51.27
2022-08-26T01:51:15.477Z,51.73
2022-08-26T01:53:42.698Z,47.50
2022-08-26T01:56:15.663Z,49.27
2022-08-26T01:58:44.805Z,51.50
2022-08-26T02:01:12.003Z,52.40
2022-08-26T02:03:43.925Z,52.30
2022-08-26T02:06:11.857Z,47.20
2022-08-26T02:08:41.895Z,48.10
2022-08-26T02:11:09.044Z,51.67
2022-08-26T02:13:40.960Z,50.50
2022-08-26T02:16:08.602Z,53.00
2022-08-26T02:18:37.805Z,51.73
2022-08-26T02:21:06.764Z,48.53
2022-08-26T02:23:34.012Z,55.40
2022-08-26T02:26:05.266Z,53.43
2022-08-26T02:28:34.941Z,52.60
2022-08-26T02:31:03.530Z,48.47
2022-08-26T02:33:32.126Z,51.70
2022-08-26T02:35:59.257Z,49.17
2022-08-26T02:38:26.367Z,46.50
2022-08-26T02:40:53.552Z,50.40
2022-08-26T02:43:31.419Z,49.17
2022-08-26T02:46:01.996Z,50.80
2022-08-26T02:48:31.340Z,48.80
2022-08-26T02:50:59.204Z,49.63
2022-08-26T02:53:27.804Z,49.10
2022-08-26T02:55:55.057Z,50.37
2022-08-26T02:58:22.187Z,42.80
2022-08-26T03:00:52.893Z,48.83
2022-08-26T03:03:23.487Z,49.90
2022-08-26T03:05:52.296Z,43.57
2022-08-26T03:08:19.433Z,45.43
2022-08-26T03:10:47.134Z,42.17
2022-08-26T03:13:15.397Z,44.67
2022-08-26T03:15:42.622Z,41.50
2022-08-26T03:18:10.026Z,39.43
2022-08-26T03:20:37.510Z,41.40
2022-08-26T03:23:06.038Z,40.90
2022-08-26T03:25:34.171Z,43.57
2022-08-26T03:28:02.295Z,38.20
2022-08-26T03:30:29.784Z,42.10
2022-08-26T03:32:56.933Z,43.70
2022-08-26T03:35:24.146Z,38.67
2022-08-26T03:37:52.175Z,36.93
2022-08-26T03:40:21.482Z,38.10
2022-08-26T03:42:49.913Z,41.43
2022-08-26T03:45:18.262Z,40.30
2022-08-26T03:47:45.819Z,43.77
2022-08-26T03:50:14.311Z,41.90
2022-08-26T03:52:43.851Z,39.50
2022-08-26T03:55:11.760Z,41.80
2022-08-26T03:57:40.231Z,41.57
2022-08-26T04:00:11.235Z,41.77
2022-08-26T04:02:39.014Z,37.80
2022-08-26T04:05:06.536Z,37.70
2022-08-26T04:07:33.674Z,39.10
2022-08-26T04:10:01.950Z,40.27
2022-08-26T04:12:29.132Z,39.73
2022-08-26T04:14:58.296Z,38.73
2022-08-26T04:17:25.453Z,35.70
2022-08-26T04:19:53.251Z,38.10
2022-08-26T04:22:24.902Z,36.40
2022-08-26T04:24:52.297Z,36.37
2022-08-26T04:27:19.557Z,33.97
2022-08-26T04:29:47.737Z,35.00
2022-08-26T04:32:16.851Z,31.90
2022-08-26T04:34:44.013Z,33.07
2022-08-26T04:37:12.607Z,33.63
2022-08-26T04:39:39.849Z,29.80
2022-08-26T04:42:07.197Z,28.53
2022-08-26T04:44:35.436Z,30.40
2022-08-26T04:47:02.969Z,30.23
2022-08-26T04:49:35.415Z,27.17
2022-08-26T04:52:03.098Z,26.03
2022-08-26T04:54:30.215Z,25.60
2022-08-26T04:56:58.530Z,25.93
2022-08-26T04:59:25.686Z,26.43
2022-08-26T05:01:53.524Z,25.40
2022-08-26T05:04:21.411Z,23.07
2022-08-26T05:06:50.962Z,22.67
2022-08-26T05:09:19.365Z,22.83
2022-08-26T05:11:48.340Z,22.37
2022-08-26T05:14:19.176Z,23.13
2022-08-26T05:16:47.791Z,23.33
2022-08-26T05:19:15.189Z,21.20
2022-08-26T05:21:46.260Z,21.93
2022-08-26T05:24:16.189Z,21.80
2022-08-26T05:26:44.431Z,22.20
2022-08-26T05:29:11.935Z,22.07
2022-08-26T05:31:39.129Z,23.77
2022-08-26T05:34:07.024Z,20.97
2022-08-26T05:36:37.076Z,21.80
2022-08-26T05:39:06.109Z,20.50
2022-08-26T05:41:36.492Z,19.90
2022-08-26T05:44:07.638Z,18.30
2022-08-26T05:46:35.980Z,18.10
2022-08-26T05:49:04.470Z,15.90
2022-08-26T05:51:33.064Z,15.73
2022-08-26T05:54:01.785Z,15.30
2022-08-26T05:56:31.074Z,15.20
2022-08-26T05:58:59.904Z,15.67
2022-08-26T06:01:28.043Z,17.33
2022-08-26T06:03:56.921Z,15.67
2022-08-26T06:06:28.531Z,14.87
2022-08-26T06:08:57.098Z,16.60
2022-08-26T06:11:24.779Z,15.07
2022-08-26T06:13:52.469Z,16.67
2022-08-26T06:16:22.130Z,16.17
2022-08-26T06:18:49.724Z,14.70
2022-08-26T06:21:18.073Z,16.83
2022-08-26T06:23:46.612Z,15.30
2022-08-26T06:26:14.297Z,16.03
2022-08-26T06:28:41.457Z,14.73
2022-08-26T06:31:12.988Z,15.77
2022-08-26T06:33:41.527Z,16.97
2022-08-26T06:36:08.891Z,15.23
2022-08-26T06:38:36.430Z,15.70
2022-08-26T06:41:03.774Z,15.07
2022-08-26T06:43:30.907Z,14.17
2022-08-26T06:46:01.233Z,14.87
2022-08-26T06:48:28.388Z,16.23
2022-08-26T06:51:04.300Z,13.50
2022-08-26T06:53:31.460Z,14.70
2022-08-26T06:55:58.597Z,15.47
2022-08-26T06:58:25.829Z,13.90
2022-08-26T07:00:52.967Z,14.33
2022-08-26T07:03:20.090Z,15.30
2022-08-26T07:05:47.207Z,15.70
2022-08-26T07:08:17.440Z,15.07
2022-08-26T07:10:44.774Z,14.37
2022-08-26T07:13:12.041Z,14.57
2022-08-26T07:15:40.278Z,14.13
2022-08-26T07:18:07.453Z,12.93
2022-08-26T07:20:37.325Z,14.60
2022-08-26T07:23:04.524Z,13.53
2022-08-26T07:25:38.570Z,12.37
2022-08-26T07:28:06.133Z,13.17
2022-08-26T07:30:33.909Z,12.17
2022-08-26T07:33:01.052Z,13.80
2022-08-26T07:35:28.208Z,14.00
2022-08-26T07:37:57.190Z,13.40
2022-08-26T07:40:24.554Z,12.00
2022-08-26T07:42:53.187Z,11.87
2022-08-26T07:45:20.358Z,10.43
2022-08-26T07:47:48.313Z,12.60
2022-08-26T07:50:15.477Z,10.57
2022-08-26T07:52:42.647Z,11.70
2022-08-26T07:55:10.565Z,9.90
2022-08-26T07:57:38.006Z,11.03
2022-08-26T08:00:09.846Z,10.17
2022-08-26T08:02:39.264Z,10.43
2022-08-26T08:05:06.631Z,10.30
2022-08-26T08:07:44.749Z,10.20
2022-08-26T08:10:13.812Z,10.30
2022-08-26T08:12:41.466Z,10.30
2022-08-26T08:15:10.708Z,11.33
2022-08-26T08:17:38.499Z,10.03
2022-08-26T08:20:06.144Z,11.00
2022-08-26T08:22:33.254Z,10.50
2022-08-26T08:25:00.385Z,10.63
2022-08-26T08:27:30.125Z,11.63
2022-08-26T08:29:57.442Z,11.33
2022-08-26T08:32:25.915Z,11.20
2022-08-26T08:34:53.085Z,10.80
2022-08-26T08:37:20.582Z,10.30
2022-08-26T08:39:48.894Z,9.70
2022-08-26T08:42:27.689Z,9.40
2022-08-26T08:44:57.889Z,11.10
2022-08-26T08:47:30.080Z,11.23
2022-08-26T08:49:59.618Z,9.83
2022-08-26T08:52:28.450Z,10.37
2022-08-26T08:54:56.113Z,11.50
2022-08-26T08:57:28.375Z,10.90
2022-08-26T08:59:59.073Z,9.93
2022-08-26T09:02:30.570Z,9.47
2022-08-26T09:05:08.465Z,8.93
2022-08-26T09:07:38.046Z,8.63
2022-08-26T09:10:09.266Z,8.47
2022-08-26T09:12:36.416Z,8.30
2022-08-26T09:15:05.177Z,9.10
2022-08-26T09:17:41.025Z,8.40
2022-08-26T09:20:12.806Z,8.30
2022-08-26T09:22:40.267Z,7.17
2022-08-26T09:25:12.906Z,8.77
2022-08-26T09:27:42.234Z,8.27
2022-08-26T09:30:11.504Z,8.07
2022-08-26T09:32:40.507Z,7.83
2022-08-26T09:35:09.225Z,8.20
2022-08-26T09:37:41.501Z,6.67
2022-08-26T09:40:13.346Z,7.37
2022-08-26T09:42:40.518Z,7.50
2022-08-26T09:45:08.926Z,9.37
2022-08-26T09:47:38.259Z,8.40
2022-08-26T09:50:12.644Z,8.50
2022-08-26T09:52:40.419Z,9.90
2022-08-26T09:55:12.218Z,20.13
2022-08-26T09:57:46.138Z,21.20
2022-08-26T10:00:24.471Z,25.30
2022-08-26T10:02:54.775Z,28.13
2022-08-26T10:05:30.046Z,33.50
2022-08-26T10:07:57.842Z,18.23
2022-08-26T10:10:30.750Z,15.10
2022-08-26T10:13:04.773Z,15.13
2022-08-26T10:15:36.456Z,19.97
2022-08-26T10:18:10.546Z,21.07
2022-08-26T10:20:42.204Z,18.47
2022-08-26T10:23:12.954Z,19.20
2022-08-26T10:25:49.347Z,20.67
2022-08-26T10:28:21.781Z,23.80
2022-08-26T10:30:51.671Z,25.30
2022-08-26T10:33:19.034Z,26.20
2022-08-26T10:35:51.318Z,28.90
2022-08-26T10:38:20.270Z,30.20
2022-08-26T10:40:52.487Z,24.33
2022-08-26T10:43:22.874Z,18.90
2022-08-26T10:45:53.976Z,13.00
2022-08-26T10:48:23.630Z,12.50
2022-08-26T10:50:52.205Z,11.27
2022-08-26T10:53:24.955Z,9.53
2022-08-26T10:55:56.571Z,6.83
2022-08-26T10:58:28.710Z,8.00
2022-08-26T11:01:00.506Z,9.13
2022-08-26T11:03:31.969Z,7.60
2022-08-26T11:06:17.926Z,6.50
2022-08-26T11:08:49.919Z,6.27
2022-08-26T11:11:32.147Z,5.50
2022-08-26T11:14:00.183Z,5.10
2022-08-26T11:16:35.760Z,4.60
2022-08-26T11:19:11.562Z,5.63
2022-08-26T11:21:43.657Z,4.73
2022-08-26T11:24:26.539Z,5.00
2022-08-26T11:26:56.837Z,5.53
2022-08-26T11:29:38.837Z,5.70
2022-08-26T11:32:05.984Z,6.03
2022-08-26T11:34:54.119Z,6.03
2022-08-26T11:37:22.825Z,5.33
2022-08-26T11:39:55.162Z,4.67
2022-08-26T11:42:29.843Z,4.57
2022-08-26T11:44:58.181Z,5.17
2022-08-26T11:47:27.604Z,5.23
2022-08-26T11:50:13.859Z,4.80
2022-08-26T11:52:40.982Z,6.10
2022-08-26T11:55:09.918Z,5.40
2022-08-26T11:57:44.313Z,5.03
2022-08-26T12:00:14.181Z,5.30
2022-08-26T12:02:42.851Z,4.80
2022-08-26T12:05:10.173Z,4.90
2022-08-26T12:07:38.458Z,4.50
2022-08-26T12:10:11.352Z,4.77
2022-08-26T12:12:39.265Z,3.40
2022-08-26T12:15:12.604Z,3.97
2022-08-26T12:17:40.794Z,3.50
2022-08-26T12:20:17.288Z,3.57
2022-08-26T12:22:48.185Z,3.97
2022-08-26T12:25:22.673Z,3.33
2022-08-26T12:27:53.698Z,3.83
2022-08-26T12:30:23.657Z,4.40
2022-08-26T12:32:58.171Z,3.70
2022-08-26T12:35:26.320Z,3.40
2022-08-26T12:37:54.518Z,4.43
2022-08-26T12:40:27.761Z,4.10
2022-08-26T12:42:55.006Z,4.10
2022-08-26T12:45:28.375Z,4.23
2022-08-26T12:47:56.629Z,4.07
2022-08-26T12:50:26.311Z,4.70
2022-08-26T12:52:56.845Z,4.20
2022-08-26T12:55:25.346Z,4.17
2022-08-26T12:58:09.969Z,3.27
2022-08-26T13:00:39.781Z,3.70
2022-08-26T13:03:21.865Z,3.50
2022-08-26T13:05:50.833Z,3.20
2022-08-26T13:08:25.513Z,2.57
2022-08-26T13:11:02.096Z,2.90
2022-08-26T13:13:29.350Z,3.20
2022-08-26T13:15:57.990Z,3.03
2022-08-26T13:18:25.171Z,2.80
2022-08-26T13:20:52.569Z,2.50
2022-08-26T13:23:20.103Z,2.60
2022-08-26T13:25:47.237Z,2.37
2022-08-26T13:28:14.399Z,2.60
2022-08-26T13:30:41.939Z,2.50
2022-08-26T13:33:12.291Z,3.00
2022-08-26T13:35:42.302Z,3.43
2022-08-26T13:38:09.437Z,2.27
2022-08-26T13:40:36.645Z,2.83
2022-08-26T13:43:03.808Z,2.20
2022-08-26T13:45:30.982Z,3.00
2022-08-26T13:47:58.107Z,2.73
2022-08-26T13:50:26.625Z,2.80
2022-08-26T13:52:53.750Z,2.37
2022-08-26T13:55:20.996Z,3.00
2022-08-26T13:57:48.214Z,3.20
2022-08-26T14:00:16.141Z,2.70
2022-08-26T14:02:43.314Z,3.77
2022-08-26T14:05:10.562Z,3.20
2022-08-26T14:07:39.039Z,2.27
2022-08-26T14:10:06.715Z,2.67
2022-08-26T14:12:33.851Z,2.37
2022-08-26T14:15:01.026Z,2.67
2022-08-26T14:17:28.267Z,2.60
2022-08-26T14:19:57.976Z,3.13
2022-08-26T14:22:25.103Z,2.70
2022-08-26T14:24:53.610Z,3.10
2022-08-26T14:27:20.739Z,3.93
2022-08-26T14:29:47.916Z,2.90
2022-08-26T14:32:17.545Z,3.10
2022-08-26T14:34:48.511Z,3.13
2022-08-26T14:37:15.762Z,2.80
2022-08-26T14:39:42.965Z,3.30
2022-08-26T14:42:11.861Z,3.00
2022-08-26T14:44:44.518Z,2.60
2022-08-26T14:47:11.698Z,3.67
2022-08-26T14:49:38.860Z,3.30
2022-08-26T14:52:06.044Z,2.70
2022-08-26T14:54:33.200Z,2.57
2022-08-26T14:57:01.598Z,2.67
2022-08-26T14:59:31.277Z,2.40
2022-08-26T15:01:59.149Z,3.20
2022-08-26T15:04:26.629Z,3.43
2022-08-26T15:06:54.312Z,3.90
2022-08-26T15:09:21.906Z,3.33
2022-08-26T15:11:49.030Z,3.40
2022-08-26T15:14:19.333Z,2.57
2022-08-26T15:16:49.402Z,3.07
2022-08-26T15:19:16.968Z,3.07
2022-08-26T15:21:44.156Z,3.93
2022-08-26T15:24:11.760Z,4.43
2022-08-26T15:26:38.921Z,3.00
2022-08-26T15:29:06.342Z,3.77
2022-08-26T15:31:34.066Z,3.47
2022-08-26T15:34:05.167Z,3.40
2022-08-26T15:36:32.714Z,3.93
2022-08-26T15:39:00.587Z,3.40
2022-08-26T15:41:27.781Z,4.97
2022-08-26T15:43:54.912Z,3.30
2022-08-26T15:46:22.056Z,3.80
2022-08-26T15:48:49.258Z,3.63
2022-08-26T15:51:22.227Z,3.10
2022-08-26T15:53:50.158Z,3.43
2022-08-26T15:56:17.533Z,3.40
2022-08-26T15:58:45.450Z,2.90
2022-08-26T16:01:12.931Z,3.07
2022-08-26T16:03:45.225Z,3.00
2022-08-26T16:06:14.906Z,4.23
2022-08-26T16:08:43.590Z,3.60
2022-08-26T16:11:10.737Z,3.67
2022-08-26T16:13:39.937Z,3.60
2022-08-26T16:16:07.861Z,4.57
2022-08-26T16:18:35.041Z,3.27
2022-08-26T16:21:13.461Z,3.87
2022-08-26T16:23:43.196Z,4.30
2022-08-26T16:26:15.029Z,4.37
2022-08-26T16:28:42.277Z,5.13
2022-08-26T16:31:11.089Z,4.20
2022-08-26T16:33:38.430Z,4.47
2022-08-26T16:36:06.082Z,4.53
2022-08-26T16:38:33.228Z,5.57
2022-08-26T16:41:00.644Z,5.70
2022-08-26T16:43:29.194Z,5.17
2022-08-26T16:45:56.561Z,4.00
2022-08-26T16:48:23.909Z,3.60
2022-08-26T16:50:51.441Z,3.40
2022-08-26T16:53:18.645Z,3.70
2022-08-26T16:55:46.181Z,3.80
2022-08-26T16:58:13.341Z,3.67
2022-08-26T17:00:41.901Z,3.90
2022-08-26T17:03:09.545Z,3.00
2022-08-26T17:05:37.093Z,3.33
2022-08-26T17:08:04.857Z,4.13
2022-08-26T17:10:32.457Z,3.60
2022-08-26T17:12:59.682Z,3.67
2022-08-26T17:15:26.950Z,3.80
2022-08-26T17:17:55.828Z,4.00
2022-08-26T17:20:23.680Z,3.20
2022-08-26T17:22:51.701Z,3.57
2022-08-26T17:25:20.153Z,3.30
2022-08-26T17:27:47.691Z,2.80
2022-08-26T17:30:15.206Z,3.03
2022-08-26T17:32:42.428Z,3.13
2022-08-26T17:35:12.892Z,3.20
2022-08-26T17:37:40.283Z,2.57
2022-08-26T17:40:08.841Z,3.00
2022-08-26T17:42:37.390Z,3.20
2022-08-26T17:45:04.889Z,3.03
2022-08-26T17:47:32.034Z,3.47
2022-08-26T17:49:59.183Z,3.40
2022-08-26T17:52:27.676Z,3.70
2022-08-26T17:54:55.264Z,2.90
2022-08-26T17:57:22.510Z,2.90
2022-08-26T17:59:50.250Z,3.33
2022-08-26T18:02:19.994Z,3.20
2022-08-26T18:04:47.188Z,3.50
2022-08-26T18:07:14.645Z,3.00
2022-08-26T18:09:43.140Z,4.00
2022-08-26T18:12:10.664Z,2.97
2022-08-26T18:14:37.823Z,3.23
2022-08-26T18:17:05.474Z,3.40
2022-08-26T18:19:32.770Z,3.67
2022-08-26T18:22:00.081Z,3.27
2022-08-26T18:24:27.233Z,3.10
2022-08-26T18:26:55.725Z,3.20
2022-08-26T18:29:22.974Z,3.67
2022-08-26T18:31:50.134Z,3.50
2022-08-26T18:34:17.300Z,3.43
2022-08-26T18:36:44.465Z,3.93
2022-08-26T18:39:12.245Z,3.60
2022-08-26T18:41:40.267Z,3.53
2022-08-26T18:44:13.307Z,3.53
2022-08-26T18:46:41.417Z,4.37
2022-08-26T18:49:08.669Z,4.33
2022-08-26T18:51:35.815Z,4.50
2022-08-26T18:54:04.290Z,3.77
2022-08-26T18:56:31.855Z,3.30
2022-08-26T18:58:59.206Z,3.83
2022-08-26T19:01:28.406Z,4.07
2022-08-26T19:03:56.280Z,3.70
2022-08-26T19:06:24.295Z,3.90
2022-08-26T19:08:51.408Z,3.90
2022-08-26T19:11:31.394Z,4.27
2022-08-26T19:14:00.001Z,4.23
2022-08-26T19:16:28.758Z,4.03
2022-08-26T19:18:56.238Z,3.70
2022-08-26T19:21:23.786Z,3.70
2022-08-26T19:23:50.961Z,4.33
2022-08-26T19:26:18.200Z,4.93
2022-08-26T19:28:45.335Z,3.60
2022-08-26T19:31:12.777Z,3.33
2022-08-26T19:33:42.813Z,4.17
2022-08-26T19:36:14.975Z,4.10
2022-08-26T19:38:42.457Z,4.50
2022-08-26T19:41:10.787Z,3.60
2022-08-26T19:43:37.947Z,3.87
2022-08-26T19:46:09.220Z,4.20
2022-08-26T19:48:36.430Z,3.60
2022-08-26T19:51:05.054Z,3.67
2022-08-26T19:53:32.224Z,3.83
2022-08-26T19:55:59.338Z,3.50
2022-08-26T19:58:26.501Z,3.70
2022-08-26T20:00:53.667Z,3.23
2022-08-26T20:03:20.785Z,2.97
2022-08-26T20:05:47.927Z,3.93
2022-08-26T20:08:22.176Z,3.17
2022-08-26T20:10:50.098Z,3.30
2022-08-26T20:13:17.445Z,4.20
2022-08-26T20:15:44.699Z,3.60
2022-08-26T20:18:11.815Z,4.23
2022-08-26T20:20:38.976Z,3.90
2022-08-26T20:23:06.112Z,3.90
2022-08-26T20:25:34.927Z,4.00
2022-08-26T20:28:02.094Z,3.43
2022-08-26T20:30:29.235Z,3.37
2022-08-26T20:32:56.995Z,3.80
2022-08-26T20:35:24.125Z,3.37
2022-08-26T20:37:51.264Z,3.97
2022-08-26T20:40:18.467Z,3.43
2022-08-26T20:42:47.000Z,3.90
2022-08-26T20:45:14.134Z,3.70
2022-08-26T20:47:41.281Z,2.97
2022-08-26T20:50:08.774Z,2.60
2022-08-26T20:52:35.930Z,2.90
2022-08-26T20:55:03.064Z,3.63
2022-08-26T20:57:30.217Z,3.87
2022-08-26T20:59:58.697Z,3.43
2022-08-26T21:02:25.832Z,3.30
2022-08-26T21:04:53.005Z,3.00
2022-08-26T21:07:20.157Z,2.93
2022-08-26T21:09:49.467Z,4.20
2022-08-26T21:12:18.830Z,4.60
2022-08-26T21:14:49.480Z,5.77
2022-08-26T21:17:18.299Z,7.93
2022-08-26T21:19:45.415Z,5.70
2022-08-26T21:22:12.566Z,4.67
2022-08-26T21:24:39.682Z,6.50
2022-08-26T21:27:06.849Z,5.37
2022-08-26T21:29:33.997Z,5.60
2022-08-26T21:32:01.190Z,6.20
2022-08-26T21:34:30.114Z,6.20
2022-08-26T21:36:57.257Z,7.80
2022-08-26T21:39:25.244Z,7.30
2022-08-26T21:41:52.380Z,6.80
2022-08-26T21:44:19.502Z,6.87
2022-08-26T21:46:46.776Z,6.57
2022-08-26T21:49:15.283Z,5.43
2022-08-26T21:51:45.615Z,12.00
2022-08-26T21:54:13.239Z,11.30
2022-08-26T21:56:41.349Z,8.83
2022-08-26T21:59:08.913Z,9.57
2022-08-26T22:01:36.737Z,7.90
2022-08-26T22:04:04.650Z,7.57
2022-08-26T22:06:32.378Z,10.10
2022-08-26T22:09:00.871Z,10.47
2022-08-26T22:11:28.508Z,16.83
2022-08-26T22:13:55.625Z,26.10
2022-08-26T22:16:23.089Z,22.17
2022-08-26T22:18:50.556Z,19.10
2022-08-26T22:21:18.469Z,33.20
2022-08-26T22:23:45.751Z,31.30
2022-08-26T22:26:15.464Z,24.07
2022-08-26T22:28:52.589Z,12.60
2022-08-26T22:31:28.106Z,14.17
2022-08-26T22:34:05.382Z,14.87
2022-08-26T22:36:32.712Z,13.13
2022-08-26T22:38:59.823Z,8.60
2022-08-26T22:41:28.327Z,7.70
2022-08-26T22:43:55.484Z,7.30
2022-08-26T22:46:23.804Z,6.40
2022-08-26T22:48:53.825Z,5.10
2022-08-26T22:51:21.387Z,4.27
2022-08-26T22:53:48.515Z,4.63
2022-08-26T22:56:15.721Z,4.30
2022-08-26T22:58:44.363Z,4.57
2022-08-26T23:01:11.574Z,4.27
2022-08-26T23:03:38.823Z,5.20
2022-08-26T23:06:06.210Z,5.80
2022-08-26T23:08:33.355Z,5.27
2022-08-26T23:11:00.520Z,4.60
2022-08-26T23:13:27.764Z,5.10
2022-08-26T23:16:02.101Z,5.50
2022-08-26T23:18:29.317Z,6.13
2022-08-26T23:20:56.475Z,7.57
2022-08-26T23:23:23.936Z,8.97
2022-08-26T23:25:51.128Z,9.53
2022-08-26T23:28:18.282Z,10.17
2022-08-26T23:30:45.406Z,10.17
2022-08-26T23:33:13.919Z,11.23
2022-08-26T23:35:41.102Z,10.30
2022-08-26T23:38:08.510Z,10.70
2022-08-26T23:40:37.887Z,11.27
2022-08-26T23:43:07.030Z,12.23
2022-08-26T23:45:34.458Z,12.53
2022-08-26T23:48:01.900Z,11.10
2022-08-26T23:50:31.065Z,10.53
2022-08-26T23:52:58.213Z,9.87
2022-08-26T23:55:25.405Z,8.50
2022-08-26T23:57:52.588Z,8.73
